createdAt,value
2019-02-16T00:02:15.065Z,6.33
2019-02-16T00:05:19.798Z,6.90
2019-02-16T00:08:24.079Z,6.87
2019-02-16T00:11:28.357Z,6.90
2019-02-16T00:14:32.767Z,6.80
2019-02-16T00:17:37.081Z,7.17
2019-02-16T00:20:41.369Z,6.70
2019-02-16T00:23:45.683Z,6.90
2019-02-16T00:26:50.115Z,6.73
2019-02-16T00:29:54.373Z,6.90
2019-02-16T00:32:58.769Z,6.77
2019-02-16T00:36:03.231Z,6.63
2019-02-16T00:39:07.896Z,7.57
2019-02-16T00:42:15.216Z,7.13
2019-02-16T00:45:19.501Z,5.87
2019-02-16T00:48:23.814Z,6.57
2019-02-16T00:51:28.283Z,6.87
2019-02-16T00:54:34.234Z,6.83
2019-02-16T00:57:39.996Z,6.80
2019-02-16T01:00:44.313Z,6.33
2019-02-16T01:03:48.739Z,6.30
2019-02-16T01:06:53.085Z,6.90
2019-02-16T01:09:57.645Z,7.43
2019-02-16T01:13:01.917Z,7.47
2019-02-16T01:16:06.315Z,6.60
2019-02-16T01:19:10.616Z,6.80
2019-02-16T01:22:16.642Z,7.33
2019-02-16T01:25:20.940Z,7.93
2019-02-16T01:28:25.405Z,8.63
2019-02-16T01:31:29.710Z,9.07
2019-02-16T01:34:34.078Z,10.17
2019-02-16T01:37:41.343Z,11.10
2019-02-16T01:40:45.647Z,10.43
2019-02-16T01:43:50.191Z,9.07
2019-02-16T01:46:55.881Z,7.23
2019-02-16T01:50:00.326Z,7.73
2019-02-16T01:53:04.766Z,8.07
2019-02-16T01:56:11.423Z,7.23
2019-02-16T01:59:15.855Z,8.70
2019-02-16T02:02:22.237Z,8.47
2019-02-16T02:05:26.583Z,8.17
2019-02-16T02:08:30.881Z,7.67
2019-02-16T02:11:37.740Z,7.97
2019-02-16T02:14:42.182Z,7.13
2019-02-16T02:17:46.498Z,7.37
2019-02-16T02:20:50.806Z,8.27
2019-02-16T02:23:55.114Z,7.67
2019-02-16T02:26:59.839Z,7.50
2019-02-16T02:30:04.281Z,6.67
2019-02-16T02:33:09.630Z,8.30
2019-02-16T02:36:13.941Z,8.13
2019-02-16T02:39:18.451Z,7.63
2019-02-16T02:42:26.170Z,7.83
2019-02-16T02:45:30.467Z,7.73
2019-02-16T02:48:34.792Z,8.33
2019-02-16T02:51:39.424Z,8.17
2019-02-16T02:54:45.603Z,8.60
2019-02-16T02:57:49.931Z,9.07
2019-02-16T03:00:54.325Z,8.80
2019-02-16T03:03:58.718Z,10.30
2019-02-16T03:07:03.058Z,10.07
2019-02-16T03:10:07.679Z,11.23
2019-02-16T03:13:11.965Z,11.83
2019-02-16T03:16:16.699Z,10.73
2019-02-16T03:19:21.014Z,10.13
2019-02-16T03:22:26.906Z,9.67
2019-02-16T03:25:31.420Z,7.77
2019-02-16T03:28:55.676Z,7.90
2019-02-16T03:32:17.519Z,8.27
2019-02-16T03:36:15.319Z,7.90
2019-02-16T03:39:35.691Z,7.70
2019-02-16T03:42:42.315Z,7.73
2019-02-16T03:45:46.657Z,7.63
2019-02-16T03:48:51.060Z,7.93
2019-02-16T03:51:55.372Z,7.27
2019-02-16T03:54:59.700Z,9.17
2019-02-16T03:58:06.966Z,9.03
2019-02-16T04:01:13.991Z,8.80
2019-02-16T04:04:18.372Z,8.67
2019-02-16T04:07:25.752Z,9.33
2019-02-16T04:10:33.072Z,8.87
2019-02-16T04:13:37.436Z,9.73
2019-02-16T04:16:41.765Z,9.27
2019-02-16T04:19:46.059Z,10.17
2019-02-16T04:22:52.478Z,10.00
2019-02-16T04:25:56.940Z,10.40
2019-02-16T04:29:01.231Z,8.93
2019-02-16T04:32:05.512Z,8.97
2019-02-16T04:35:09.849Z,9.03
2019-02-16T04:38:16.171Z,9.40
2019-02-16T04:41:20.153Z,9.13
2019-02-16T04:44:24.590Z,9.00
2019-02-16T04:47:28.884Z,8.33
2019-02-16T04:50:33.163Z,8.93
2019-02-16T04:53:37.488Z,8.37
2019-02-16T04:56:41.767Z,8.37
2019-02-16T04:59:46.028Z,8.20
2019-02-16T05:02:50.323Z,8.30
2019-02-16T05:05:54.815Z,8.20
2019-02-16T05:08:59.274Z,7.43
2019-02-16T05:12:05.378Z,8.07
2019-02-16T05:15:09.807Z,8.27
2019-02-16T05:18:15.872Z,8.00
2019-02-16T05:21:20.168Z,7.97
2019-02-16T05:24:24.522Z,8.20
2019-02-16T05:27:31.574Z,8.13
2019-02-16T05:30:35.866Z,7.80
2019-02-16T05:33:41.528Z,8.03
2019-02-16T05:36:45.843Z,7.97
2019-02-16T05:39:51.866Z,8.83
2019-02-16T05:42:56.173Z,7.90
2019-02-16T05:46:00.505Z,7.53
2019-02-16T05:49:07.593Z,7.83
2019-02-16T05:52:11.961Z,7.83
2019-02-16T05:55:16.229Z,8.00
2019-02-16T05:58:23.196Z,8.27
2019-02-16T06:01:27.479Z,7.90
2019-02-16T06:04:31.858Z,7.50
2019-02-16T06:07:36.273Z,8.53
2019-02-16T06:10:40.578Z,8.33
2019-02-16T06:13:44.917Z,7.87
2019-02-16T06:16:49.205Z,8.20
2019-02-16T06:19:53.483Z,8.20
2019-02-16T06:23:04.287Z,8.40
2019-02-16T06:26:06.274Z,8.33
2019-02-16T06:29:10.621Z,7.80
2019-02-16T06:32:14.945Z,8.10
2019-02-16T06:35:50.581Z,8.47
2019-02-16T06:38:55.088Z,7.73
2019-02-16T06:42:01.342Z,8.67
2019-02-16T06:45:07.221Z,8.37
2019-02-16T06:48:11.525Z,8.30
2019-02-16T06:51:16.161Z,8.20
2019-02-16T06:54:20.472Z,8.33
2019-02-16T06:57:28.243Z,8.70
2019-02-16T07:00:32.727Z,7.90
2019-02-16T07:03:37.034Z,8.80
2019-02-16T07:06:41.384Z,8.40
2019-02-16T07:09:45.791Z,8.87
2019-02-16T07:12:52.892Z,8.67
2019-02-16T07:16:25.589Z,8.83
2019-02-16T07:19:33.121Z,8.60
2019-02-16T07:22:37.534Z,9.50
2019-02-16T07:25:42.877Z,8.87
2019-02-16T07:28:47.111Z,8.77
2019-02-16T07:31:53.472Z,8.53
2019-02-16T07:34:57.755Z,8.77
2019-02-16T07:38:02.149Z,9.53
2019-02-16T07:41:06.583Z,9.23
2019-02-16T07:44:45.122Z,10.50
2019-02-16T07:48:08.488Z,9.47
2019-02-16T07:51:31.712Z,9.20
2019-02-16T07:55:00.932Z,9.50
2019-02-16T07:58:11.783Z,9.93
2019-02-16T08:01:35.023Z,9.67
2019-02-16T08:05:01.329Z,9.43
2019-02-16T08:08:20.050Z,10.10
2019-02-16T08:11:41.475Z,9.93
2019-02-16T08:15:23.150Z,10.10
2019-02-16T08:18:39.564Z,10.57
2019-02-16T08:22:09.112Z,10.10
2019-02-16T08:25:39.853Z,10.60
2019-02-16T08:29:02.100Z,10.57
2019-02-16T08:32:31.405Z,11.37
2019-02-16T08:35:54.766Z,10.10
2019-02-16T08:39:19.728Z,11.53
2019-02-16T08:43:01.189Z,11.90
2019-02-16T08:46:23.091Z,11.20
2019-02-16T08:49:46.223Z,11.17
2019-02-16T08:53:18.586Z,12.27
2019-02-16T08:56:41.143Z,13.33
2019-02-16T08:59:57.659Z,13.17
2019-02-16T09:03:22.762Z,13.60
2019-02-16T09:06:57.420Z,13.40
2019-02-16T09:10:11.563Z,13.33
2019-02-16T09:13:40.981Z,14.53
2019-02-16T09:17:03.073Z,14.93
2019-02-16T09:20:17.555Z,15.30
2019-02-16T09:23:44.541Z,14.83
2019-02-16T09:27:06.928Z,14.30
2019-02-16T09:30:34.004Z,15.57
2019-02-16T09:33:46.205Z,16.10
2019-02-16T09:37:06.040Z,16.10
2019-02-16T09:40:35.112Z,16.23
2019-02-16T09:43:51.092Z,16.00
2019-02-16T09:47:17.436Z,15.50
2019-02-16T09:50:30.373Z,15.53
2019-02-16T09:54:08.394Z,17.03
2019-02-16T09:57:26.587Z,16.60
2019-02-16T10:00:48.169Z,17.50
2019-02-16T10:04:11.357Z,17.70
2019-02-16T10:07:46.943Z,18.93
2019-02-16T10:11:13.617Z,18.50
2019-02-16T10:14:38.161Z,17.17
2019-02-16T10:17:54.867Z,17.67
2019-02-16T10:21:21.376Z,17.23
2019-02-16T10:24:37.796Z,15.70
2019-02-16T10:27:56.101Z,15.97
2019-02-16T10:31:19.432Z,16.80
2019-02-16T10:34:42.967Z,16.23
2019-02-16T10:38:24.384Z,16.93
2019-02-16T10:41:46.427Z,17.23
2019-02-16T10:45:06.179Z,16.03
2019-02-16T10:48:32.445Z,16.27
2019-02-16T10:51:53.854Z,16.57
2019-02-16T10:55:22.977Z,16.90
2019-02-16T10:58:55.263Z,16.37
2019-02-16T11:02:17.269Z,16.63
2019-02-16T11:05:43.668Z,17.20
2019-02-16T11:09:02.742Z,16.33
2019-02-16T11:12:26.122Z,16.00
2019-02-16T11:15:45.727Z,16.83
2019-02-16T11:19:04.546Z,16.03
2019-02-16T11:22:17.667Z,16.73
2019-02-16T11:25:39.553Z,17.57
2019-02-16T11:29:05.929Z,17.17
2019-02-16T11:32:38.549Z,19.43
2019-02-16T11:36:08.195Z,17.57
2019-02-16T11:39:44.787Z,17.77
2019-02-16T11:43:11.102Z,17.73
2019-02-16T11:46:40.614Z,16.70
2019-02-16T11:50:16.455Z,16.77
2019-02-16T11:54:03.022Z,16.63
2019-02-16T11:57:32.208Z,16.33
2019-02-16T12:00:58.210Z,16.83
2019-02-16T12:04:19.463Z,16.40
2019-02-16T12:07:43.704Z,16.00
2019-02-16T12:11:10.074Z,16.67
2019-02-16T12:14:32.036Z,16.13
2019-02-16T12:17:53.866Z,17.97
2019-02-16T12:21:17.195Z,17.33
2019-02-16T12:25:02.952Z,15.43
2019-02-16T12:28:11.659Z,16.73
2019-02-16T12:31:53.406Z,17.37
2019-02-16T12:35:19.325Z,16.10
2019-02-16T12:38:41.323Z,17.20
2019-02-16T12:42:03.507Z,16.70
2019-02-16T12:45:23.382Z,16.17
2019-02-16T12:48:52.836Z,16.93
2019-02-16T12:55:43.032Z,17.37
2019-02-16T12:58:54.983Z,18.53
2019-02-16T13:02:17.011Z,21.00
2019-02-16T13:05:32.020Z,17.60
2019-02-16T13:08:52.039Z,19.60
2019-02-16T13:12:14.173Z,20.83
2019-02-16T13:15:52.533Z,20.93
2019-02-16T13:19:06.295Z,19.73
2019-02-16T13:22:28.370Z,21.63
2019-02-16T13:25:54.702Z,20.67
2019-02-16T13:29:14.236Z,22.80
2019-02-16T13:32:52.928Z,21.30
2019-02-16T13:36:18.987Z,22.60
2019-02-16T13:39:33.648Z,22.20
2019-02-16T13:42:53.071Z,22.07
2019-02-16T13:46:34.854Z,25.77
2019-02-16T13:49:44.771Z,23.80
2019-02-16T13:53:06.259Z,23.93
2019-02-16T13:56:37.798Z,24.73
2019-02-16T14:00:06.736Z,24.33
2019-02-16T14:03:38.191Z,24.07
2019-02-16T14:06:50.831Z,22.80
2019-02-16T14:10:17.494Z,24.50
2019-02-16T14:13:31.001Z,24.27
2019-02-16T14:16:44.773Z,23.73
2019-02-16T14:19:49.181Z,22.47
2019-02-16T14:22:53.489Z,26.37
2019-02-16T14:25:57.889Z,25.47
2019-02-16T14:29:02.333Z,25.40
2019-02-16T14:32:06.634Z,22.60
2019-02-16T14:35:12.491Z,25.33
2019-02-16T14:38:37.156Z,26.17
2019-02-16T14:41:41.465Z,24.47
2019-02-16T14:44:45.783Z,24.93
2019-02-16T14:47:50.125Z,27.13
2019-02-16T14:50:54.465Z,26.93
2019-02-16T14:53:58.760Z,24.63
2019-02-16T14:57:03.054Z,24.93
2019-02-16T15:00:08.318Z,27.20
2019-02-16T15:03:12.782Z,27.23
2019-02-16T15:06:17.106Z,26.43
2019-02-16T15:09:21.503Z,27.97
2019-02-16T15:12:25.896Z,28.40
2019-02-16T15:15:30.312Z,24.83
2019-02-16T15:18:35.940Z,26.07
2019-02-16T15:21:40.301Z,29.10
2019-02-16T15:24:44.714Z,27.23
2019-02-16T15:27:49.088Z,26.87
2019-02-16T15:30:53.399Z,28.93
2019-02-16T15:33:57.705Z,27.53
2019-02-16T15:37:02.051Z,26.77
2019-02-16T15:40:06.678Z,27.10
2019-02-16T15:43:11.071Z,30.70
2019-02-16T15:46:15.386Z,29.00
2019-02-16T15:49:19.802Z,26.60
2019-02-16T15:52:24.127Z,28.07
2019-02-16T15:55:29.512Z,26.80
2019-02-16T15:58:33.846Z,25.63
2019-02-16T16:01:38.237Z,28.43
2019-02-16T16:04:42.587Z,28.40
2019-02-16T16:07:56.497Z,29.60
2019-02-16T16:11:08.230Z,29.50
2019-02-16T16:14:28.660Z,28.90
2019-02-16T16:17:57.671Z,32.90
2019-02-16T16:21:23.720Z,33.70
2019-02-16T16:25:02.527Z,33.83
2019-02-16T16:28:24.728Z,34.17
2019-02-16T16:31:50.934Z,34.40
2019-02-16T16:38:19.620Z,35.47
2019-02-16T16:41:36.749Z,34.57
2019-02-16T16:44:58.846Z,30.40
2019-02-16T16:48:13.432Z,29.20
2019-02-16T16:51:33.523Z,29.90
2019-02-16T16:54:54.471Z,32.97
2019-02-16T16:58:16.674Z,30.57
2019-02-16T17:01:38.693Z,30.17
2019-02-16T17:05:05.049Z,33.50
2019-02-16T17:08:17.367Z,32.93
2019-02-16T17:11:43.511Z,33.37
2019-02-16T17:15:12.329Z,31.87
2019-02-16T17:18:29.090Z,30.80
2019-02-16T17:22:07.513Z,32.43
2019-02-16T17:25:30.984Z,32.50
2019-02-16T17:28:50.318Z,31.33
2019-02-16T17:32:26.022Z,30.70
2019-02-16T17:35:39.336Z,30.57
2019-02-16T17:39:01.209Z,32.37
2019-02-16T17:42:30.679Z,30.33
2019-02-16T17:46:01.518Z,31.97
2019-02-16T17:49:17.123Z,29.70
2019-02-16T17:52:39.197Z,30.37
2019-02-16T17:56:02.481Z,30.17
2019-02-16T17:59:24.262Z,30.33
2019-02-16T18:02:53.613Z,31.03
2019-02-16T18:06:15.528Z,33.20
2019-02-16T18:09:37.647Z,32.00
2019-02-16T18:12:58.667Z,30.90
2019-02-16T18:16:19.353Z,33.23
2019-02-16T18:19:42.251Z,34.80
2019-02-16T18:22:55.426Z,35.03
2019-02-16T18:26:10.195Z,35.40
2019-02-16T18:29:26.079Z,34.03
2019-02-16T18:32:50.309Z,36.83
2019-02-16T18:36:03.921Z,35.77
2019-02-16T18:39:38.034Z,37.37
2019-02-16T18:43:01.922Z,36.30
2019-02-16T18:46:25.249Z,34.70
2019-02-16T18:50:06.946Z,34.90
2019-02-16T18:53:31.064Z,34.43
2019-02-16T18:56:54.344Z,34.80
2019-02-16T19:00:08.201Z,33.63
2019-02-16T19:03:31.961Z,33.30
2019-02-16T19:06:55.237Z,35.37
2019-02-16T19:10:33.788Z,35.20
2019-02-16T19:14:06.115Z,31.50
2019-02-16T19:17:29.486Z,30.27
2019-02-16T19:20:58.812Z,32.57
2019-02-16T19:24:21.007Z,32.47
2019-02-16T19:27:42.953Z,33.87
2019-02-16T19:31:26.759Z,33.93
2019-02-16T19:34:52.894Z,32.30
2019-02-16T19:38:28.439Z,30.63
2019-02-16T19:42:07.076Z,35.93
2019-02-16T19:45:42.659Z,32.73
2019-02-16T19:49:06.195Z,37.00
2019-02-16T19:52:29.589Z,38.30
2019-02-16T19:55:56.030Z,41.07
2019-02-16T19:59:26.963Z,39.43
2019-02-16T20:02:49.364Z,36.37
2019-02-16T20:06:25.298Z,33.67
2019-02-16T20:09:48.574Z,37.63
2019-02-16T20:13:13.115Z,36.60
2019-02-16T20:16:35.464Z,37.53
2019-02-16T20:20:04.887Z,36.73
2019-02-16T20:23:39.675Z,35.73
2019-02-16T20:27:03.290Z,35.47
2019-02-16T20:30:25.670Z,32.87
2019-02-16T20:33:39.313Z,33.67
2019-02-16T20:37:04.958Z,33.60
2019-02-16T20:40:24.193Z,34.90
2019-02-16T20:43:41.941Z,34.07
2019-02-16T20:47:14.715Z,34.53
2019-02-16T20:50:41.151Z,33.50
2019-02-16T20:54:04.424Z,34.87
2019-02-16T20:57:47.086Z,31.97
2019-02-16T21:01:05.241Z,32.33
2019-02-16T21:04:20.351Z,30.17
2019-02-16T21:07:52.625Z,31.17
2019-02-16T21:11:18.399Z,31.30
2019-02-16T21:14:32.342Z,30.80
2019-02-16T21:18:00.647Z,32.20
2019-02-16T21:21:22.474Z,32.97
2019-02-16T21:24:57.806Z,31.37
2019-02-16T21:28:11.566Z,33.80
2019-02-16T21:31:37.991Z,34.87
2019-02-16T21:35:00.131Z,34.40
2019-02-16T21:38:22.723Z,34.33
2019-02-16T21:41:44.539Z,32.57
2019-02-16T21:45:03.558Z,32.63
2019-02-16T21:48:32.766Z,34.27
2019-02-16T21:52:02.153Z,34.40
2019-02-16T21:55:31.988Z,35.23
2019-02-16T21:58:54.003Z,32.80
2019-02-16T22:02:16.126Z,30.07
2019-02-16T22:05:42.536Z,33.33
2019-02-16T22:09:03.422Z,34.93
2019-02-16T22:12:17.194Z,35.33
2019-02-16T22:15:21.731Z,34.43
2019-02-16T22:18:26.041Z,33.37
2019-02-16T22:21:33.357Z,35.77
2019-02-16T22:24:37.688Z,36.37
2019-02-16T22:27:42.083Z,33.13
2019-02-16T22:30:47.002Z,36.37
2019-02-16T22:33:51.421Z,38.13
2019-02-16T22:36:55.871Z,38.90
2019-02-16T22:40:00.329Z,34.60
2019-02-16T22:43:04.765Z,38.17
2019-02-16T22:46:09.216Z,40.33
2019-02-16T22:49:14.688Z,38.47
2019-02-16T22:52:19.099Z,39.33
2019-02-16T22:55:25.051Z,40.90
2019-02-16T22:58:29.458Z,38.77
2019-02-16T23:01:34.238Z,37.73
2019-02-16T23:04:38.571Z,40.33
2019-02-16T23:07:42.954Z,38.83
2019-02-16T23:10:47.378Z,40.50
2019-02-16T23:13:51.816Z,42.70
2019-02-16T23:16:56.148Z,41.27
2019-02-16T23:20:00.573Z,39.77
2019-02-16T23:23:05.166Z,38.43
2019-02-16T23:26:12.062Z,40.97
2019-02-16T23:29:16.490Z,40.70
2019-02-16T23:32:22.195Z,41.50
2019-02-16T23:35:26.612Z,38.93
2019-02-16T23:38:30.978Z,41.33
2019-02-16T23:41:35.287Z,38.20
2019-02-16T23:44:39.674Z,39.83
2019-02-16T23:47:43.977Z,42.57
2019-02-16T23:50:48.363Z,41.33
2019-02-16T23:53:52.804Z,44.30
2019-02-16T23:56:57.078Z,43.87
